createdAt,value
2019-04-29T00:00:44.906Z,60.00
2019-04-29T00:03:13.646Z,60.00
2019-04-29T00:05:42.392Z,59.70
2019-04-29T00:08:11.156Z,59.80
2019-04-29T00:10:39.928Z,59.70
2019-04-29T00:13:08.698Z,59.90
2019-04-29T00:15:55.590Z,59.90
2019-04-29T00:18:30.668Z,59.80
2019-04-29T00:20:59.442Z,59.80
2019-04-29T00:23:28.590Z,59.80
2019-04-29T00:25:57.426Z,59.80
2019-04-29T00:28:26.295Z,59.90
2019-04-29T00:30:55.120Z,60.00
2019-04-29T00:33:23.875Z,60.20
2019-04-29T00:35:52.610Z,60.10
2019-04-29T00:38:40.430Z,60.00
2019-04-29T00:41:40.439Z,59.80
2019-04-29T00:44:11.703Z,59.80
2019-04-29T00:46:40.536Z,59.70
2019-04-29T00:49:09.265Z,59.80
2019-04-29T00:51:38.018Z,60.00
2019-04-29T00:54:28.734Z,59.80
2019-04-29T00:56:57.574Z,59.90
2019-04-29T00:59:26.420Z,59.80
2019-04-29T01:01:55.331Z,59.90
2019-04-29T01:04:24.111Z,59.90
2019-04-29T01:06:52.863Z,59.90
2019-04-29T01:09:21.981Z,60.10
2019-04-29T01:11:50.827Z,60.40
2019-04-29T01:14:19.579Z,60.30
2019-04-29T01:16:48.388Z,60.10
2019-04-29T01:19:17.135Z,59.90
2019-04-29T01:21:47.701Z,59.80
2019-04-29T01:24:16.506Z,59.80
2019-04-29T01:27:16.201Z,59.80
2019-04-29T01:29:45.011Z,60.00
2019-04-29T01:32:13.905Z,59.90
2019-04-29T01:34:49.887Z,59.90
2019-04-29T01:37:18.628Z,59.90
2019-04-29T01:39:57.988Z,59.90
2019-04-29T01:42:30.603Z,60.00
2019-04-29T01:44:59.347Z,60.00
2019-04-29T01:47:28.217Z,60.00
2019-04-29T01:49:56.973Z,60.30
2019-04-29T01:52:25.870Z,60.20
2019-04-29T01:54:54.623Z,60.00
2019-04-29T01:57:23.375Z,59.90
2019-04-29T01:59:52.127Z,59.90
2019-04-29T02:02:20.975Z,59.70
2019-04-29T02:04:49.717Z,59.90
2019-04-29T02:07:18.507Z,59.80
2019-04-29T02:10:08.161Z,60.00
2019-04-29T02:12:36.919Z,59.90
2019-04-29T02:15:06.262Z,59.80
2019-04-29T02:17:35.049Z,59.90
2019-04-29T02:20:03.997Z,59.90
2019-04-29T02:22:50.506Z,59.90
2019-04-29T02:25:24.114Z,60.00
2019-04-29T02:27:52.876Z,60.10
2019-04-29T02:30:39.931Z,60.20
2019-04-29T02:33:08.790Z,60.90
2019-04-29T02:35:37.553Z,60.00
2019-04-29T02:38:07.968Z,60.00
2019-04-29T02:40:43.844Z,59.80
2019-04-29T02:43:17.652Z,59.80
2019-04-29T02:45:46.427Z,59.80
2019-04-29T02:48:15.243Z,60.00
2019-04-29T02:50:44.025Z,60.00
2019-04-29T02:53:12.762Z,59.80
2019-04-29T02:55:45.722Z,59.70
2019-04-29T02:58:32.520Z,59.70
2019-04-29T03:01:09.588Z,59.80
2019-04-29T03:03:56.307Z,59.90
2019-04-29T03:06:25.172Z,60.00
2019-04-29T03:08:53.922Z,60.10
2019-04-29T03:11:22.686Z,60.00
2019-04-29T03:13:51.434Z,60.00
2019-04-29T03:16:20.202Z,60.00
2019-04-29T03:18:53.269Z,59.80
2019-04-29T03:21:46.967Z,59.90
2019-04-29T03:24:15.814Z,60.00
2019-04-29T03:26:44.632Z,60.00
2019-04-29T03:29:22.785Z,60.20
2019-04-29T03:31:53.181Z,60.20
2019-04-29T03:34:21.965Z,60.00
2019-04-29T03:36:50.850Z,59.90
2019-04-29T03:39:19.714Z,59.70
2019-04-29T03:41:48.743Z,59.60
2019-04-29T03:44:17.566Z,59.70
2019-04-29T03:46:46.311Z,59.80
2019-04-29T03:49:15.070Z,59.50
2019-04-29T03:51:43.811Z,59.50
2019-04-29T03:54:12.568Z,59.60
2019-04-29T03:56:42.641Z,59.50
2019-04-29T03:59:11.412Z,59.60
2019-04-29T04:01:57.875Z,59.60
2019-04-29T04:04:44.562Z,59.60
2019-04-29T04:07:31.341Z,59.80
2019-04-29T04:10:00.244Z,59.60
2019-04-29T04:12:28.995Z,59.40
2019-04-29T04:14:57.727Z,59.50
2019-04-29T04:17:38.598Z,59.50
2019-04-29T04:20:07.588Z,59.50
2019-04-29T04:22:48.856Z,59.50
2019-04-29T04:25:18.050Z,59.70
2019-04-29T04:27:47.861Z,59.60
2019-04-29T04:30:16.951Z,59.60
2019-04-29T04:32:45.806Z,59.70
2019-04-29T04:35:14.575Z,59.80
2019-04-29T04:37:43.336Z,59.60
2019-04-29T04:40:14.315Z,59.80
2019-04-29T04:42:43.190Z,59.80
2019-04-29T04:45:12.632Z,59.90
2019-04-29T04:47:41.390Z,59.90
2019-04-29T04:50:29.422Z,59.80
2019-04-29T04:52:58.592Z,59.50
2019-04-29T04:55:30.338Z,59.50
2019-04-29T04:57:59.570Z,59.50
2019-04-29T05:00:30.028Z,59.50
2019-04-29T05:02:59.298Z,59.50
2019-04-29T05:05:28.073Z,59.40
2019-04-29T05:07:57.386Z,59.50
2019-04-29T05:10:26.269Z,59.50
2019-04-29T05:12:55.084Z,59.50
2019-04-29T05:15:24.251Z,59.50
2019-04-29T05:17:53.489Z,59.60
2019-04-29T05:20:22.302Z,59.60
2019-04-29T05:23:00.195Z,59.80
2019-04-29T05:25:33.328Z,60.00
2019-04-29T05:28:02.685Z,59.90
2019-04-29T05:30:31.432Z,59.50
2019-04-29T05:33:00.352Z,59.50
2019-04-29T05:35:48.144Z,59.50
2019-04-29T05:38:41.822Z,59.50
2019-04-29T05:41:10.660Z,59.50
2019-04-29T05:43:45.416Z,59.60
2019-04-29T05:46:36.090Z,59.60
2019-04-29T05:49:07.269Z,59.90
2019-04-29T05:51:57.560Z,59.60
2019-04-29T05:54:26.948Z,59.30
2019-04-29T05:56:56.056Z,59.60
2019-04-29T05:59:24.831Z,59.80
2019-04-29T06:01:53.664Z,59.90
2019-04-29T06:04:22.424Z,60.00
2019-04-29T06:06:51.162Z,60.00
2019-04-29T06:09:19.920Z,60.00
2019-04-29T06:11:48.680Z,59.60
2019-04-29T06:14:17.542Z,59.80
2019-04-29T06:16:46.309Z,59.70
2019-04-29T06:19:15.080Z,59.80
2019-04-29T06:21:43.810Z,59.90
2019-04-29T06:24:22.669Z,59.90
2019-04-29T06:26:51.411Z,59.90
2019-04-29T06:29:20.246Z,59.90
2019-04-29T06:31:49.020Z,60.00
2019-04-29T06:34:17.769Z,60.00
2019-04-29T06:36:46.504Z,60.00
2019-04-29T06:39:15.316Z,60.00
2019-04-29T06:41:45.424Z,60.00
2019-04-29T06:44:16.736Z,60.00
2019-04-29T06:46:45.204Z,59.90
2019-04-29T06:49:13.952Z,59.90
2019-04-29T06:51:43.271Z,59.70
2019-04-29T06:54:12.050Z,59.20
2019-04-29T06:56:40.821Z,59.20
2019-04-29T06:59:12.283Z,59.30
2019-04-29T07:01:40.653Z,59.40
2019-04-29T07:04:09.432Z,59.40
2019-04-29T07:06:38.267Z,59.40
2019-04-29T07:09:07.610Z,59.20
2019-04-29T07:11:38.244Z,59.10
2019-04-29T07:14:07.148Z,59.10
2019-04-29T07:16:35.979Z,59.20
2019-04-29T07:19:04.818Z,59.20
2019-04-29T07:21:33.606Z,59.20
2019-04-29T07:24:02.368Z,59.20
2019-04-29T07:26:31.112Z,59.20
2019-04-29T07:28:59.875Z,59.20
2019-04-29T07:31:33.187Z,59.20
2019-04-29T07:33:59.170Z,59.20
2019-04-29T07:36:27.908Z,59.20
2019-04-29T07:38:56.928Z,59.40
2019-04-29T07:41:26.396Z,59.20
2019-04-29T07:43:55.212Z,59.20
2019-04-29T07:46:34.682Z,59.30
2019-04-29T07:49:05.665Z,59.20
2019-04-29T07:51:34.723Z,59.40
2019-04-29T07:54:04.292Z,59.30
2019-04-29T07:56:33.051Z,59.40
2019-04-29T07:59:03.079Z,59.50
2019-04-29T08:01:32.242Z,59.60
2019-04-29T08:04:01.106Z,59.60
2019-04-29T08:06:29.843Z,59.40
2019-04-29T08:09:07.398Z,59.10
2019-04-29T08:11:29.382Z,59.10
2019-04-29T08:13:58.495Z,59.10
2019-04-29T08:16:27.279Z,59.20
2019-04-29T08:18:56.046Z,59.40
2019-04-29T08:21:24.824Z,59.30
2019-04-29T08:23:53.669Z,59.30
2019-04-29T08:26:22.430Z,59.40
2019-04-29T08:28:52.962Z,59.40
2019-04-29T08:31:22.248Z,59.40
2019-04-29T08:33:51.301Z,59.50
2019-04-29T08:36:20.162Z,59.60
2019-04-29T08:38:48.906Z,59.80
2019-04-29T08:41:21.039Z,59.70
2019-04-29T08:44:16.370Z,59.70
2019-04-29T08:46:51.525Z,59.50
2019-04-29T08:49:15.686Z,59.50
2019-04-29T08:51:44.447Z,59.40
2019-04-29T08:54:16.113Z,59.50
2019-04-29T08:57:01.774Z,59.60
2019-04-29T08:59:14.207Z,59.60
2019-04-29T09:01:51.388Z,60.20
2019-04-29T09:04:20.199Z,59.60
2019-04-29T09:06:49.050Z,59.70
2019-04-29T09:09:28.877Z,59.80
2019-04-29T09:11:49.426Z,59.80
2019-04-29T09:14:21.446Z,59.70
2019-04-29T09:16:52.569Z,59.90
2019-04-29T09:19:21.444Z,60.00
2019-04-29T09:21:54.889Z,59.90
2019-04-29T09:24:23.803Z,59.70
2019-04-29T09:27:05.073Z,59.60
2019-04-29T09:29:33.780Z,59.60
2019-04-29T09:32:02.805Z,59.60
2019-04-29T09:34:31.688Z,59.60
2019-04-29T09:37:00.515Z,59.60
2019-04-29T09:39:42.513Z,59.60
2019-04-29T09:42:37.357Z,59.70
2019-04-29T09:45:25.279Z,59.80
2019-04-29T09:47:54.168Z,59.70
2019-04-29T09:50:22.991Z,59.80
2019-04-29T09:52:51.767Z,59.80
2019-04-29T09:55:21.587Z,60.00
2019-04-29T09:57:50.358Z,59.90
2019-04-29T10:00:30.462Z,59.80
2019-04-29T10:03:10.710Z,59.60
2019-04-29T10:05:48.349Z,59.60
2019-04-29T10:08:17.204Z,59.60
2019-04-29T10:10:46.158Z,59.50
2019-04-29T10:13:15.018Z,59.50
2019-04-29T10:16:06.693Z,59.30
2019-04-29T10:18:50.170Z,59.60
2019-04-29T10:21:21.432Z,59.60
2019-04-29T10:23:49.489Z,59.70
2019-04-29T10:26:18.529Z,59.70
2019-04-29T10:28:54.811Z,59.80
2019-04-29T10:31:23.661Z,59.70
2019-04-29T10:33:54.920Z,59.90
2019-04-29T10:36:26.067Z,60.00
2019-04-29T10:38:55.365Z,59.90
2019-04-29T10:41:30.137Z,59.60
2019-04-29T10:44:18.693Z,59.80
2019-04-29T10:47:09.471Z,59.80
2019-04-29T10:49:42.539Z,59.80
2019-04-29T10:52:11.487Z,59.80
2019-04-29T10:54:40.328Z,60.00
2019-04-29T10:57:10.608Z,59.90
2019-04-29T10:59:44.988Z,59.80
2019-04-29T11:02:51.312Z,60.00
2019-04-29T11:05:31.177Z,60.00
2019-04-29T11:08:06.436Z,60.00
2019-04-29T11:10:35.294Z,60.00
2019-04-29T11:13:04.329Z,60.10
2019-04-29T11:15:35.969Z,60.10
2019-04-29T11:18:05.592Z,59.90
2019-04-29T11:20:35.443Z,59.90
2019-04-29T11:23:30.046Z,59.90
2019-04-29T11:26:14.204Z,59.80
2019-04-29T11:28:46.949Z,59.90
2019-04-29T11:31:19.070Z,59.80
2019-04-29T11:34:05.437Z,59.80
2019-04-29T11:36:34.984Z,59.90
2019-04-29T11:39:08.952Z,59.90
2019-04-29T11:41:36.821Z,60.00
2019-04-29T11:44:05.629Z,60.00
2019-04-29T11:46:34.462Z,60.00
2019-04-29T11:49:05.111Z,60.00
2019-04-29T11:52:07.633Z,60.10
2019-04-29T11:54:18.138Z,60.10
2019-04-29T11:56:45.625Z,60.00
2019-04-29T11:59:30.581Z,59.90
2019-04-29T12:02:23.862Z,59.90
2019-04-29T12:04:56.412Z,60.00
2019-04-29T12:07:32.145Z,59.90
2019-04-29T12:09:56.104Z,59.90
2019-04-29T12:12:24.925Z,59.80
2019-04-29T12:15:13.747Z,60.00
2019-04-29T12:17:48.725Z,60.00
2019-04-29T12:20:32.445Z,59.90
2019-04-29T12:23:01.215Z,60.00
2019-04-29T12:25:30.063Z,60.00
2019-04-29T12:28:18.939Z,60.00
2019-04-29T12:30:42.081Z,60.00
2019-04-29T12:33:15.679Z,60.10
2019-04-29T12:36:05.147Z,60.10
2019-04-29T12:38:52.060Z,60.00
2019-04-29T12:41:32.746Z,59.80
2019-04-29T12:44:34.207Z,59.80
2019-04-29T12:47:25.851Z,59.80
2019-04-29T12:49:46.394Z,59.80
2019-04-29T12:52:14.346Z,59.90
2019-04-29T12:54:46.124Z,59.90
2019-04-29T12:57:13.762Z,59.90
2019-04-29T12:59:42.663Z,59.90
2019-04-29T13:02:24.334Z,60.60
2019-04-29T13:05:11.696Z,59.90
2019-04-29T13:07:51.858Z,60.00
2019-04-29T13:10:42.342Z,60.00
2019-04-29T13:13:10.780Z,60.10
2019-04-29T13:16:08.194Z,60.10
2019-04-29T13:19:10.623Z,60.00
2019-04-29T13:21:29.761Z,59.90
2019-04-29T13:24:12.563Z,59.90
2019-04-29T13:26:33.289Z,59.90
2019-04-29T13:29:01.444Z,59.90
2019-04-29T13:31:38.202Z,60.00
2019-04-29T13:34:14.729Z,60.00
2019-04-29T13:36:33.210Z,59.90
2019-04-29T13:39:02.109Z,60.00
2019-04-29T13:41:30.954Z,59.90
2019-04-29T13:44:05.698Z,60.00
2019-04-29T13:46:51.252Z,60.00
2019-04-29T13:49:31.504Z,60.00
2019-04-29T13:52:00.880Z,60.10
2019-04-29T13:54:29.802Z,60.10
2019-04-29T13:57:07.705Z,60.10
2019-04-29T13:59:49.195Z,60.10
2019-04-29T14:02:40.742Z,60.10
2019-04-29T14:05:10.650Z,60.10
2019-04-29T14:07:39.838Z,60.90
2019-04-29T14:10:10.180Z,59.70
2019-04-29T14:12:48.459Z,60.30
2019-04-29T14:15:09.742Z,60.20
2019-04-29T14:17:38.525Z,60.20
2019-04-29T14:20:10.739Z,59.90
2019-04-29T14:22:38.026Z,59.90
2019-04-29T14:25:06.874Z,59.80
2019-04-29T14:27:35.694Z,59.80
2019-04-29T14:30:07.813Z,60.00
2019-04-29T14:32:41.985Z,59.90
2019-04-29T14:35:18.239Z,59.90
2019-04-29T14:37:54.839Z,60.00
2019-04-29T14:40:17.720Z,60.00
2019-04-29T14:43:25.406Z,60.00
2019-04-29T14:45:50.184Z,60.00
2019-04-29T14:48:42.165Z,60.10
2019-04-29T14:51:03.773Z,60.10
2019-04-29T14:53:32.542Z,60.10
2019-04-29T14:56:01.309Z,60.10
2019-04-29T14:58:30.066Z,60.10
2019-04-29T15:01:36.261Z,60.10
2019-04-29T15:04:17.855Z,60.10
2019-04-29T15:06:40.700Z,60.10
2019-04-29T15:09:16.892Z,60.30
2019-04-29T15:12:07.011Z,60.30
2019-04-29T15:14:42.232Z,60.20
2019-04-29T15:17:19.899Z,59.90
2019-04-29T15:20:10.876Z,59.80
2019-04-29T15:22:40.052Z,59.80
2019-04-29T15:25:08.975Z,59.80
2019-04-29T15:27:37.738Z,59.90
2019-04-29T15:30:06.735Z,59.80
2019-04-29T15:32:35.644Z,59.90
2019-04-29T15:35:04.846Z,59.90
2019-04-29T15:37:33.642Z,59.90
2019-04-29T15:40:02.385Z,60.00
2019-04-29T15:42:31.204Z,60.00
2019-04-29T15:45:00.415Z,60.10
2019-04-29T15:47:31.496Z,60.10
2019-04-29T15:50:00.610Z,60.20
2019-04-29T15:52:30.245Z,60.10
2019-04-29T15:54:59.107Z,60.00
2019-04-29T15:57:28.112Z,59.90
2019-04-29T16:00:00.050Z,59.90
2019-04-29T16:02:28.874Z,59.90
2019-04-29T16:05:09.238Z,59.90
2019-04-29T16:07:55.837Z,60.00
2019-04-29T16:10:41.685Z,60.00
2019-04-29T16:13:11.212Z,60.00
2019-04-29T16:15:40.041Z,60.00
2019-04-29T16:18:10.738Z,60.00
2019-04-29T16:20:39.363Z,60.00
2019-04-29T16:23:08.115Z,60.20
2019-04-29T16:25:40.592Z,60.10
2019-04-29T16:28:07.440Z,60.10
2019-04-29T16:30:36.223Z,60.10
2019-04-29T16:33:12.948Z,60.20
2019-04-29T16:35:35.444Z,60.30
2019-04-29T16:38:11.497Z,60.20
2019-04-29T16:40:41.277Z,60.10
2019-04-29T16:43:16.281Z,60.20
2019-04-29T16:46:00.154Z,60.20
2019-04-29T16:48:28.980Z,60.30
2019-04-29T16:50:57.846Z,60.40
2019-04-29T16:53:26.631Z,60.30
2019-04-29T16:55:55.395Z,60.00
2019-04-29T16:58:24.208Z,59.90
2019-04-29T17:00:54.841Z,59.90
2019-04-29T17:03:23.856Z,59.90
2019-04-29T17:05:52.696Z,59.90
2019-04-29T17:08:23.183Z,59.90
2019-04-29T17:11:17.556Z,59.90
2019-04-29T17:13:44.422Z,59.90
2019-04-29T17:16:15.943Z,59.90
2019-04-29T17:18:45.564Z,59.90
2019-04-29T17:21:14.672Z,59.90
2019-04-29T17:23:43.437Z,60.00
2019-04-29T17:26:17.441Z,60.10
2019-04-29T17:28:52.884Z,60.10
2019-04-29T17:31:57.262Z,59.90
2019-04-29T17:34:56.730Z,59.80
2019-04-29T17:37:00.732Z,59.80
2019-04-29T17:39:30.066Z,59.90
2019-04-29T17:41:58.930Z,59.90
2019-04-29T17:44:52.920Z,59.90
2019-04-29T17:47:42.590Z,59.90
2019-04-29T17:50:28.864Z,59.90
2019-04-29T17:52:47.899Z,60.60
2019-04-29T17:55:37.590Z,60.00
2019-04-29T17:58:09.268Z,60.00
2019-04-29T18:01:01.792Z,60.10
2019-04-29T18:03:50.273Z,60.10
2019-04-29T18:06:26.441Z,60.20
2019-04-29T18:09:28.548Z,60.30
2019-04-29T18:11:58.323Z,60.00
2019-04-29T18:14:36.807Z,59.90
2019-04-29T18:16:57.723Z,59.80
2019-04-29T18:19:45.184Z,59.80
2019-04-29T18:22:32.644Z,59.80
2019-04-29T18:25:07.558Z,59.90
2019-04-29T18:27:37.000Z,59.90
2019-04-29T18:30:07.155Z,59.90
2019-04-29T18:32:41.873Z,61.90
2019-04-29T18:35:06.582Z,62.80
2019-04-29T18:37:38.421Z,64.10
2019-04-29T18:40:06.038Z,63.40
2019-04-29T18:42:38.605Z,64.70
2019-04-29T18:45:05.419Z,63.60
2019-04-29T18:47:36.329Z,63.00
2019-04-29T18:50:05.671Z,63.50
2019-04-29T18:52:35.111Z,64.10
2019-04-29T18:55:05.819Z,65.50
2019-04-29T18:57:35.821Z,64.10
2019-04-29T19:00:11.858Z,62.40
2019-04-29T19:02:45.307Z,62.00
2019-04-29T19:05:17.913Z,61.60
2019-04-29T19:07:54.974Z,61.30
2019-04-29T19:10:18.644Z,61.30
2019-04-29T19:12:57.531Z,61.20
2019-04-29T19:15:18.558Z,61.10
2019-04-29T19:17:58.710Z,61.10
2019-04-29T19:20:18.664Z,61.10
2019-04-29T19:22:59.683Z,61.10
2019-04-29T19:25:22.612Z,61.00
2019-04-29T19:27:51.463Z,61.00
2019-04-29T19:30:21.334Z,61.10
2019-04-29T19:32:53.878Z,60.90
2019-04-29T19:35:21.575Z,61.00
2019-04-29T19:37:50.711Z,61.00
2019-04-29T19:40:19.564Z,61.00
2019-04-29T19:42:48.331Z,61.00
2019-04-29T19:45:17.585Z,61.00
2019-04-29T19:47:52.073Z,60.90
2019-04-29T19:50:19.431Z,60.70
2019-04-29T19:52:47.736Z,60.50
2019-04-29T19:55:16.605Z,60.40
2019-04-29T19:57:48.197Z,60.40
2019-04-29T20:00:17.818Z,60.40
2019-04-29T20:02:49.983Z,60.40
2019-04-29T20:05:36.972Z,60.40
2019-04-29T20:08:03.050Z,60.40
2019-04-29T20:10:37.272Z,60.50
2019-04-29T20:13:02.958Z,60.40
2019-04-29T20:15:35.454Z,60.40
2019-04-29T20:18:23.708Z,60.50
2019-04-29T20:21:08.069Z,60.60
2019-04-29T20:23:28.030Z,60.70
2019-04-29T20:26:12.315Z,60.60
2019-04-29T20:28:27.635Z,60.40
2019-04-29T20:31:15.013Z,60.30
2019-04-29T20:33:27.322Z,60.40
2019-04-29T20:36:01.731Z,60.30
2019-04-29T20:38:29.916Z,60.40
2019-04-29T20:40:57.311Z,60.50
2019-04-29T20:43:29.580Z,60.40
2019-04-29T20:45:58.085Z,60.50
2019-04-29T20:48:27.324Z,60.50
2019-04-29T20:50:56.608Z,60.50
2019-04-29T20:53:42.823Z,60.50
2019-04-29T20:56:13.077Z,60.60
2019-04-29T20:58:46.207Z,60.70
2019-04-29T21:01:21.254Z,60.80
2019-04-29T21:03:53.772Z,60.60
2019-04-29T21:06:20.593Z,60.40
2019-04-29T21:08:51.193Z,60.30
2019-04-29T21:11:27.112Z,60.30
2019-04-29T21:14:21.038Z,60.30
2019-04-29T21:16:50.417Z,60.50
2019-04-29T21:19:19.191Z,60.30
2019-04-29T21:21:48.005Z,60.40
2019-04-29T21:24:18.772Z,60.40
2019-04-29T21:26:47.939Z,60.30
2019-04-29T21:29:19.457Z,60.30
2019-04-29T21:31:50.586Z,60.40
2019-04-29T21:34:18.708Z,60.50
2019-04-29T21:37:01.611Z,60.60
2019-04-29T21:39:47.569Z,60.60
2019-04-29T21:42:35.709Z,60.60
2019-04-29T21:45:03.978Z,60.30
2019-04-29T21:47:44.168Z,60.10
2019-04-29T21:50:05.042Z,60.10
2019-04-29T21:52:33.964Z,60.10
2019-04-29T21:55:02.736Z,60.30
2019-04-29T21:57:31.519Z,60.30
2019-04-29T22:00:00.294Z,60.20
2019-04-29T22:02:29.211Z,60.30
2019-04-29T22:04:58.073Z,60.20
2019-04-29T22:07:26.873Z,60.20
2019-04-29T22:09:55.789Z,60.30
2019-04-29T22:12:24.563Z,60.40
2019-04-29T22:14:54.194Z,60.60
2019-04-29T22:17:26.229Z,60.60
2019-04-29T22:19:57.394Z,60.50
2019-04-29T22:22:25.116Z,60.30
2019-04-29T22:24:57.565Z,60.20
2019-04-29T22:27:24.362Z,60.20
2019-04-29T22:29:53.150Z,60.20
2019-04-29T22:32:21.926Z,60.40
2019-04-29T22:34:56.107Z,60.30
2019-04-29T22:37:21.184Z,60.30
2019-04-29T22:39:49.934Z,60.30
2019-04-29T22:42:37.441Z,60.30
2019-04-29T22:45:06.994Z,60.30
2019-04-29T22:47:35.742Z,60.50
2019-04-29T22:50:04.686Z,60.50
2019-04-29T22:52:34.866Z,60.60
2019-04-29T22:55:05.531Z,60.50
2019-04-29T22:57:34.420Z,60.50
2019-04-29T23:00:05.005Z,60.60
2019-04-29T23:02:33.876Z,60.50
2019-04-29T23:05:02.696Z,60.50
2019-04-29T23:07:31.444Z,60.50
2019-04-29T23:10:00.296Z,60.50
2019-04-29T23:12:29.036Z,60.80
2019-04-29T23:14:58.547Z,60.70
2019-04-29T23:17:27.533Z,60.70
2019-04-29T23:20:01.389Z,60.50
2019-04-29T23:22:38.221Z,60.40
2019-04-29T23:25:29.985Z,60.10
2019-04-29T23:27:59.100Z,60.10
2019-04-29T23:30:28.714Z,60.20
2019-04-29T23:32:57.598Z,60.30
2019-04-29T23:35:26.387Z,60.10
2019-04-29T23:37:58.855Z,60.20
2019-04-29T23:40:25.635Z,60.20
2019-04-29T23:42:55.378Z,60.20
2019-04-29T23:45:25.305Z,60.30
2019-04-29T23:47:55.571Z,60.40
2019-04-29T23:50:25.762Z,60.60
2019-04-29T23:52:55.705Z,60.70
2019-04-29T23:55:27.303Z,60.60
2019-04-29T23:58:13.232Z,60.40
